Time;durP1;ratioP1;P1;durP2;ratioP2;P2;SDS_P1;SDS_P2;PMS_P1;PMS_P2;Temp;Humidity;BMP_temperature;BMP_pressure;BME280_temperature;BME280_humidity;BME280_pressure;Samples;Min_cycle;Max_cycle;Signal;HPM_P1;HPM_P2
2022/03/26 00:00:36;;;;;;;1999.90;999.90;;;;;;;7.73;54.52;164459.78;5054607;28;20080;-67
2022/03/26 00:03:04;;;;;;;1999.90;999.90;;;;;;;7.77;54.52;164469.41;5062519;28;20045;-68
2022/03/26 00:05:31;;;;;;;1999.90;999.90;;;;;;;7.75;54.40;164465.25;5060652;28;20079;-68
2022/03/26 00:07:57;;;;;;;1999.90;999.90;;;;;;;7.68;54.17;164446.03;5038630;28;20076;-68
2022/03/26 00:10:24;;;;;;;1999.90;999.90;;;;;;;7.67;54.94;164441.91;5052435;28;20175;-67
2022/03/26 00:12:52;;;;;;;1999.90;999.90;;;;;;;7.62;55.12;164429.50;5053953;28;20056;-67
2022/03/26 00:15:19;;;;;;;1999.90;999.90;;;;;;;7.56;55.21;164413.03;5064458;28;20088;-67
2022/03/26 00:17:46;;;;;;;1999.90;999.90;;;;;;;7.47;55.12;164389.66;5056783;28;20468;-68
2022/03/26 00:20:12;;;;;;;1999.90;999.90;;;;;;;7.44;54.82;164380.03;5060706;28;20052;-68
2022/03/26 00:22:39;;;;;;;1999.90;999.90;;;;;;;7.43;55.13;164378.69;5069090;28;20097;-68
2022/03/26 00:25:06;;;;;;;1999.90;999.90;;;;;;;7.34;55.38;164355.31;5055178;28;20090;-68
2022/03/26 00:27:33;;;;;;;1999.90;999.90;;;;;;;7.28;55.63;164338.84;5068961;28;20060;-68
2022/03/26 00:30:02;;;;;;;1999.90;999.90;;;;;;;7.26;56.04;164333.31;5057020;28;20052;-68
2022/03/26 00:32:28;;;;;;;1999.90;999.90;;;;;;;7.27;55.65;164334.72;5061080;28;20060;-68
2022/03/26 00:34:55;;;;;;;1999.90;999.90;;;;;;;7.20;56.17;164316.84;5057335;28;20098;-68
2022/03/26 00:37:21;;;;;;;1999.90;999.90;;;;;;;7.16;56.42;164307.22;5062107;28;20112;-67
2022/03/26 00:39:48;;;;;;;1999.90;999.90;;;;;;;7.12;56.26;164294.88;5074990;28;20080;-67
2022/03/26 00:42:15;;;;;;;1999.90;999.90;;;;;;;7.05;56.22;164278.34;5059117;28;20044;-67
2022/03/26 00:44:41;;;;;;;1999.90;999.90;;;;;;;7.01;55.59;164267.38;5068599;28;20097;-68
2022/03/26 00:47:08;;;;;;;1999.90;999.90;;;;;;;6.91;55.61;164238.50;5055009;28;20103;-68
2022/03/26 00:49:36;;;;;;;1999.90;999.90;;;;;;;6.86;56.42;164226.13;5059898;28;20049;-68
2022/03/26 00:52:03;;;;;;;1999.90;999.90;;;;;;;6.86;56.63;164226.13;5068553;28;20080;-68
2022/03/26 00:54:30;;;;;;;1999.90;999.90;;;;;;;6.88;57.18;164231.66;5059236;28;20052;-69
2022/03/26 00:56:57;;;;;;;1999.90;999.90;;;;;;;6.82;57.26;164215.19;5062725;28;20052;-66
2022/03/26 00:59:24;;;;;;;1999.90;999.90;;;;;;;6.81;57.79;164212.44;5058622;28;20346;-67
2022/03/26 01:01:51;;;;;;;1999.90;999.90;;;;;;;6.82;57.66;164216.53;5050685;28;20056;-67
2022/03/26 01:04:17;;;;;;;1999.90;999.90;;;;;;;6.63;57.60;164165.72;5056160;28;20063;-68
2022/03/26 01:06:44;;;;;;;1999.90;999.90;;;;;;;6.61;58.58;164160.22;5060719;28;20122;-68
2022/03/26 01:09:11;;;;;;;1999.90;999.90;;;;;;;6.70;58.78;164183.59;5045373;28;20091;-68
2022/03/26 01:11:37;;;;;;;1999.90;999.90;;;;;;;6.65;58.29;164169.81;5054060;28;20088;-68
2022/03/26 01:14:03;;;;;;;1999.90;999.90;;;;;;;6.50;58.77;164130.00;5055754;28;20091;-67
2022/03/26 01:16:30;;;;;;;1999.90;999.90;;;;;;;6.63;58.92;164164.34;5053023;28;20080;-67
2022/03/26 01:18:57;;;;;;;1999.90;999.90;;;;;;;6.59;59.63;164154.69;5067189;28;20053;-69
2022/03/26 01:21:24;;;;;;;1999.90;999.90;;;;;;;6.58;59.50;164152.00;5058040;28;20088;-68
2022/03/26 01:23:50;;;;;;;1999.90;999.90;;;;;;;6.53;59.37;164138.22;5062222;28;20088;-68
2022/03/26 01:26:18;;;;;;;1999.90;999.90;;;;;;;6.35;59.55;164090.16;5064223;28;20044;-68
2022/03/26 01:28:45;;;;;;;1999.90;999.90;;;;;;;6.45;60.17;164116.28;5054297;28;20445;-69
2022/03/26 01:31:12;;;;;;;1999.90;999.90;;;;;;;6.43;60.77;164110.75;5066385;28;20095;-66
2022/03/26 01:33:39;;;;;;;1999.90;999.90;;;;;;;6.42;61.08;164108.03;5057955;28;20139;-66
2022/03/26 01:36:08;;;;;;;1999.90;999.90;;;;;;;6.41;60.54;164106.63;5065312;28;20052;-67
2022/03/26 01:38:35;;;;;;;1999.90;999.90;;;;;;;5.94;61.30;163980.25;5068291;28;20480;-67
2022/03/26 01:41:01;;;;;;;1999.90;999.90;;;;;;;5.84;61.78;163952.84;5056218;28;20087;-66
2022/03/26 01:43:28;;;;;;;1999.90;999.90;;;;;;;5.78;61.76;163937.72;5074816;28;20072;-69
2022/03/26 01:45:55;;;;;;;1999.90;999.90;;;;;;;5.90;61.33;163970.66;5057023;28;20052;-67
2022/03/26 01:48:22;;;;;;;1999.90;999.90;;;;;;;6.01;61.73;163998.16;5075959;28;20052;-67
2022/03/26 01:50:49;;;;;;;1999.90;999.90;;;;;;;5.94;62.00;163980.25;5057132;28;20304;-68
2022/03/26 01:53:16;;;;;;;1999.90;999.90;;;;;;;6.10;61.83;164022.88;5049268;28;20142;-68
2022/03/26 01:55:42;;;;;;;1999.90;999.90;;;;;;;6.09;62.38;164020.09;5070750;28;20088;-68
2022/03/26 01:58:09;;;;;;;1999.90;999.90;;;;;;;6.03;61.85;164003.66;5046143;28;20052;-68
2022/03/26 02:00:36;;;;;;;1999.90;999.90;;;;;;;6.05;62.24;164009.16;5066823;28;20064;-68
2022/03/26 02:03:03;;;;;;;1999.90;999.90;;;;;;;6.07;62.44;164014.63;5059250;28;20052;-68
2022/03/26 02:05:31;;;;;;;1999.90;999.90;;;;;;;6.10;62.56;164022.88;5067201;28;20471;-68
2022/03/26 02:07:58;;;;;;;1999.90;999.90;;;;;;;5.96;62.13;163987.13;5070611;28;20500;-67
2022/03/26 02:10:24;;;;;;;1999.90;999.90;;;;;;;6.05;61.61;164009.16;5061449;28;20076;-67
2022/03/26 02:12:51;;;;;;;1999.90;999.90;;;;;;;6.08;61.55;164017.41;5069800;28;20408;-67
2022/03/26 02:15:17;;;;;;;1999.90;999.90;;;;;;;5.87;61.73;163962.41;5057454;28;20057;-67
2022/03/26 02:17:44;;;;;;;1999.90;999.90;;;;;;;5.77;62.25;163934.97;5067276;28;20341;-68
2022/03/26 02:20:12;;;;;;;1999.90;999.90;;;;;;;5.47;63.18;163855.34;5052123;28;20445;-67
2022/03/26 02:22:39;;;;;;;1999.90;999.90;;;;;;;5.20;64.49;163783.97;5062627;28;20110;-67
2022/03/26 02:25:07;;;;;;;1999.90;999.90;;;;;;;5.14;64.32;163767.53;5063344;28;20118;-67
2022/03/26 02:27:34;;;;;;;1999.90;999.90;;;;;;;5.04;64.58;163741.44;5047268;28;20140;-68
2022/03/26 02:30:02;;;;;;;1999.90;999.90;;;;;;;5.20;63.86;163783.97;5059965;28;20106;-68
2022/03/26 02:32:29;;;;;;;1999.90;999.90;;;;;;;5.20;63.85;163783.97;5039681;28;20094;-68
2022/03/26 02:34:56;;;;;;;1999.90;999.90;;;;;;;5.38;62.99;163832.00;5066110;28;20052;-68
2022/03/26 02:37:30;;;;;;;1999.90;999.90;;;;;;;5.44;62.36;163847.13;5073178;28;20083;-68
2022/03/26 02:39:56;;;;;;;1999.90;999.90;;;;;;;5.16;63.36;163773.00;5072111;28;20053;-66
2022/03/26 02:42:23;;;;;;;1999.90;999.90;;;;;;;5.35;62.23;163822.44;5081874;28;20053;-68
2022/03/26 02:44:50;;;;;;;1999.90;999.90;;;;;;;5.54;61.90;163874.56;5061360;28;20056;-67
2022/03/26 02:47:17;;;;;;;1999.90;999.90;;;;;;;5.74;61.76;163926.72;5071306;28;20072;-67
2022/03/26 02:49:44;;;;;;;1999.90;999.90;;;;;;;5.78;61.36;163937.72;5071845;28;20353;-67
2022/03/26 02:52:10;;;;;;;1999.90;999.90;;;;;;;5.90;60.89;163970.66;5041108;28;20049;-67
2022/03/26 02:54:37;;;;;;;1999.90;999.90;;;;;;;5.92;61.62;163976.13;5062595;28;20102;-67
2022/03/26 02:57:04;;;;;;;1999.90;999.90;;;;;;;5.93;61.67;163978.88;5060965;28;20130;-67
2022/03/26 02:59:31;;;;;;;1999.90;999.90;;;;;;;5.84;61.19;163952.84;5079174;28;20141;-68
2022/03/26 03:01:57;;;;;;;1999.90;999.90;;;;;;;5.82;61.42;163950.06;5054075;28;20056;-68
2022/03/26 03:04:24;;;;;;;1999.90;999.90;;;;;;;5.80;61.29;163943.19;5066122;28;20056;-67
2022/03/26 03:06:51;;;;;;;1999.90;999.90;;;;;;;5.86;61.02;163958.31;5061233;28;20758;-67
2022/03/26 03:09:18;;;;;;;1999.90;999.90;;;;;;;5.59;61.00;163888.28;5056088;28;20057;-67
2022/03/26 03:11:44;;;;;;;1999.90;999.90;;;;;;;5.59;60.83;163888.28;5066682;28;20053;-67
2022/03/26 03:14:11;;;;;;;1999.90;999.90;;;;;;;5.25;62.09;163796.31;5059456;28;20076;-67
2022/03/26 03:16:38;;;;;;;1999.90;999.90;;;;;;;5.17;62.62;163775.75;5067531;28;20338;-67
2022/03/26 03:19:05;;;;;;;1999.90;999.90;;;;;;;5.13;63.62;163763.41;5057617;28;20045;-67
2022/03/26 03:21:32;;;;;;;1999.90;999.90;;;;;;;5.04;63.68;163740.06;5067293;28;20060;-67
2022/03/26 03:23:58;;;;;;;1999.90;999.90;;;;;;;4.70;64.74;163649.50;5069679;28;20048;-67
2022/03/26 03:26:25;;;;;;;1999.90;999.90;;;;;;;4.67;64.66;163641.28;5060822;28;20098;-67
2022/03/26 03:28:51;;;;;;;1999.90;999.90;;;;;;;4.64;64.50;163633.06;5065898;28;20384;-66
2022/03/26 03:31:18;;;;;;;1999.90;999.90;;;;;;;5.09;62.96;163753.78;5054181;28;20060;-67
2022/03/26 03:33:46;;;;;;;1999.90;999.90;;;;;;;5.42;62.03;163841.66;5068309;28;20056;-67
2022/03/26 03:36:13;;;;;;;1999.90;999.90;;;;;;;5.66;61.21;163906.16;5059779;28;20132;-67
2022/03/26 03:38:40;;;;;;;1999.90;999.90;;;;;;;5.73;60.77;163925.38;5064336;28;20056;-67
2022/03/26 03:41:07;;;;;;;1999.90;999.90;;;;;;;5.79;60.32;163941.84;5068473;28;20052;-67
2022/03/26 03:43:33;;;;;;;1999.90;999.90;;;;;;;5.87;59.98;163962.41;5050519;28;20412;-68
2022/03/26 03:46:00;;;;;;;1999.90;999.90;;;;;;;5.80;60.16;163944.53;5064974;28;20072;-67
2022/03/26 03:48:28;;;;;;;1999.90;999.90;;;;;;;5.60;60.56;163889.69;5064475;28;20396;-67
2022/03/26 03:50:55;;;;;;;1999.90;999.90;;;;;;;5.61;60.54;163892.38;5066614;28;20364;-67
2022/03/26 03:53:21;;;;;;;1999.90;999.90;;;;;;;5.58;60.49;163885.56;5067273;28;20091;-68
2022/03/26 03:55:48;;;;;;;1999.90;999.90;;;;;;;5.55;60.85;163877.34;5060350;28;20074;-68
2022/03/26 03:58:14;;;;;;;1999.90;999.90;;;;;;;5.59;60.73;163888.28;5069372;28;20061;-68
2022/03/26 04:00:41;;;;;;;1999.90;999.90;;;;;;;5.64;60.46;163902.03;5057923;28;20133;-68
2022/03/26 04:03:07;;;;;;;1999.90;999.90;;;;;;;5.57;60.79;163882.81;5063592;28;20080;-68
2022/03/26 04:05:34;;;;;;;1999.90;999.90;;;;;;;5.35;61.74;163822.44;5052540;28;20091;-68
2022/03/26 04:08:00;;;;;;;1999.90;999.90;;;;;;;5.38;62.00;163830.66;5068971;28;20084;-68
2022/03/26 04:10:27;;;;;;;1999.90;999.90;;;;;;;5.37;62.12;163829.25;5051200;28;20072;-68
2022/03/26 04:12:57;;;;;;;1999.90;999.90;;;;;;;5.35;62.46;163823.78;5059235;28;20052;-68
2022/03/26 04:15:24;;;;;;;1999.90;999.90;;;;;;;5.31;62.42;163811.44;5056837;28;20190;-68
2022/03/26 04:17:52;;;;;;;1999.90;999.90;;;;;;;5.43;62.51;163844.34;5043734;28;20049;-68
2022/03/26 04:20:19;;;;;;;1999.90;999.90;;;;;;;5.37;62.97;163827.88;5056134;28;20044;-68
2022/03/26 04:22:46;;;;;;;1999.90;999.90;;;;;;;5.55;62.70;163877.34;5059342;28;20092;-68
2022/03/26 04:25:13;;;;;;;1999.90;999.90;;;;;;;5.53;63.09;163871.81;5068553;28;20499;-68
2022/03/26 04:27:44;;;;;;;1999.90;999.90;;;;;;;5.57;63.09;163882.81;5068611;28;20052;-68
2022/03/26 04:30:12;;;;;;;1999.90;999.90;;;;;;;5.42;63.95;163841.66;5053067;28;20106;-68
2022/03/26 04:32:38;;;;;;;1999.90;999.90;;;;;;;5.67;63.40;163907.50;5062092;28;20322;-68
2022/03/26 04:35:05;;;;;;;1999.90;999.90;;;;;;;5.56;63.68;163878.69;5057030;28;20056;-68
2022/03/26 04:37:34;;;;;;;1999.90;999.90;;;;;;;5.50;64.06;163863.56;5068181;28;20089;-68
2022/03/26 04:40:01;;;;;;;1999.90;999.90;;;;;;;5.70;63.77;163915.72;5058757;28;20672;-68
2022/03/26 04:42:28;;;;;;;1999.90;999.90;;;;;;;5.77;63.68;163936.31;5050771;28;20084;-68
2022/03/26 04:44:54;;;;;;;1999.90;999.90;;;;;;;5.87;63.08;163961.06;5062616;28;20121;-67
2022/03/26 04:47:20;;;;;;;1999.90;999.90;;;;;;;5.84;63.39;163954.19;5064833;28;20402;-67
2022/03/26 04:49:47;;;;;;;1999.90;999.90;;;;;;;5.85;63.63;163956.94;5080321;28;20473;-68
2022/03/26 04:52:14;;;;;;;1999.90;999.90;;;;;;;5.89;63.36;163966.53;5041224;28;20049;-68
2022/03/26 04:54:42;;;;;;;1999.90;999.90;;;;;;;5.94;63.27;163981.66;5067262;28;20318;-68
2022/03/26 04:57:10;;;;;;;1999.90;999.90;;;;;;;6.10;62.67;164022.88;5061688;28;20131;-68
2022/03/26 04:59:36;;;;;;;1999.90;999.90;;;;;;;6.07;63.24;164014.63;5059140;28;20681;-68
2022/03/26 05:02:03;;;;;;;1999.90;999.90;;;;;;;6.10;63.31;164022.88;5067655;28;20048;-68
2022/03/26 05:04:30;;;;;;;1999.90;999.90;;;;;;;6.07;63.13;164014.63;5050095;28;20056;-68
2022/03/26 05:06:57;;;;;;;1999.90;999.90;;;;;;;6.28;62.61;164072.34;5064248;28;20791;-68
2022/03/26 05:09:23;;;;;;;1999.90;999.90;;;;;;;6.27;62.30;164069.56;5052164;28;20408;-68
2022/03/26 05:11:50;;;;;;;1999.90;999.90;;;;;;;6.30;62.08;164077.81;5063297;28;20091;-68
2022/03/26 05:14:17;;;;;;;1999.90;999.90;;;;;;;6.35;62.04;164091.53;5066633;28;20362;-67
2022/03/26 05:16:44;;;;;;;1999.90;999.90;;;;;;;6.28;62.08;164072.34;5045493;28;20154;-67
2022/03/26 05:19:11;;;;;;;1999.90;999.90;;;;;;;6.31;61.80;164079.16;5066207;28;20153;-68
2022/03/26 05:21:38;;;;;;;1999.90;999.90;;;;;;;6.29;61.82;164075.03;5051244;28;20150;-68
2022/03/26 05:24:05;;;;;;;1999.90;999.90;;;;;;;6.40;61.36;164102.53;5059109;28;20079;-68
2022/03/26 05:26:32;;;;;;;1999.90;999.90;;;;;;;6.59;61.05;164153.34;5053776;28;20048;-69
2022/03/26 05:29:00;;;;;;;1999.90;999.90;;;;;;;6.33;62.08;164086.03;5066147;28;20477;-68
2022/03/26 05:31:28;;;;;;;1999.90;999.90;;;;;;;6.63;61.72;164165.72;5062499;28;20063;-68
2022/03/26 05:33:55;;;;;;;1999.90;999.90;;;;;;;6.76;60.49;164200.06;5058308;28;20131;-67
2022/03/26 05:36:22;;;;;;;1999.90;999.90;;;;;;;7.04;59.64;164275.63;5067420;28;20500;-67
2022/03/26 05:38:48;;;;;;;1999.90;999.90;;;;;;;7.34;58.90;164353.91;5058980;28;20059;-67
2022/03/26 05:41:15;;;;;;;1999.90;999.90;;;;;;;7.47;58.48;164388.28;5065910;28;20053;-67
2022/03/26 05:43:41;;;;;;;1999.90;999.90;;;;;;;7.55;58.27;164410.31;5065746;28;20052;-67
2022/03/26 05:46:08;;;;;;;1999.90;999.90;;;;;;;7.51;57.73;164400.66;5040280;28;20102;-67
2022/03/26 05:48:36;;;;;;;1999.90;999.90;;;;;;;7.59;57.61;164421.25;5071977;28;20040;-67
2022/03/26 05:51:02;;;;;;;1999.90;999.90;;;;;;;7.76;57.27;164468.00;5060607;28;20056;-67
2022/03/26 05:53:28;;;;;;;1999.90;999.90;;;;;;;7.88;57.15;164498.28;5056577;28;20223;-67
2022/03/26 05:55:55;;;;;;;1999.90;999.90;;;;;;;7.92;56.86;164509.28;5054686;28;20661;-67
2022/03/26 05:58:21;;;;;;;1999.90;999.90;;;;;;;7.73;56.57;164458.41;5045438;28;20083;-67
2022/03/26 06:00:48;;;;;;;1999.90;999.90;;;;;;;8.05;56.17;164543.63;5067462;28;20052;-67
2022/03/26 06:03:18;;;;;;;1999.90;999.90;;;;;;;8.19;56.06;164582.13;5058827;28;20045;-67
2022/03/26 06:05:46;;;;;;;1999.90;999.90;;;;;;;8.01;56.54;164534.03;5055170;28;20280;-67
2022/03/26 06:08:13;;;;;;;1999.90;999.90;;;;;;;8.14;55.98;164568.38;5058645;28;20053;-67
2022/03/26 06:10:40;;;;;;;1999.90;999.90;;;;;;;8.29;56.05;164608.25;5058996;28;20053;-67
2022/03/26 06:13:06;;;;;;;1999.90;999.90;;;;;;;8.54;55.42;164674.31;5059509;28;20044;-67
2022/03/26 06:15:34;;;;;;;1999.90;999.90;;;;;;;8.64;54.75;164701.84;5068112;28;20070;-67
2022/03/26 06:18:10;;;;;;;1999.90;999.90;;;;;;;8.58;55.06;164685.34;5062768;28;20433;-67
2022/03/26 06:20:37;;;;;;;1999.90;999.90;;;;;;;8.91;55.08;164774.72;5061515;28;20106;-67
2022/03/26 06:23:03;;;;;;;1999.90;999.90;;;;;;;9.10;54.19;164824.28;5071192;28;20265;-67
2022/03/26 06:25:30;;;;;;;1999.90;999.90;;;;;;;9.09;53.98;164822.88;5060833;28;20080;-67
2022/03/26 06:27:57;;;;;;;1999.90;999.90;;;;;;;9.19;54.39;164849.03;5070836;28;20130;-67
2022/03/26 06:30:23;;;;;;;1999.90;999.90;;;;;;;9.09;53.79;164822.88;5069083;28;20275;-66
2022/03/26 06:32:52;;;;;;;1999.90;999.90;;;;;;;9.10;54.58;164824.28;5065259;28;20060;-67
2022/03/26 06:35:19;;;;;;;1999.90;999.90;;;;;;;9.31;54.46;164880.69;5061597;28;20048;-67
2022/03/26 06:37:46;;;;;;;1999.90;999.90;;;;;;;9.41;54.64;164908.22;5062273;28;20056;-67
2022/03/26 06:40:12;;;;;;;1999.90;999.90;;;;;;;9.64;54.06;164968.75;5070449;28;20118;-67
2022/03/26 06:42:39;;;;;;;1999.90;999.90;;;;;;;9.91;53.67;165041.69;5062515;28;20086;-67
2022/03/26 06:45:06;;;;;;;1999.90;999.90;;;;;;;10.08;53.63;165087.16;5069176;28;20098;-67
2022/03/26 06:47:32;;;;;;;1999.90;999.90;;;;;;;10.08;53.08;165085.75;5071089;28;20044;-67
2022/03/26 06:49:59;;;;;;;1999.90;999.90;;;;;;;9.82;53.55;165018.28;5074057;28;20101;-67
2022/03/26 06:52:25;;;;;;;1999.90;999.90;;;;;;;10.22;53.30;165125.66;5063974;28;20110;-67
2022/03/26 06:54:52;;;;;;;1999.90;999.90;;;;;;;9.84;54.61;165022.41;5056830;28;20505;-67
2022/03/26 06:57:19;;;;;;;1999.90;999.90;;;;;;;10.09;52.80;165088.50;5065620;28;20049;-67
2022/03/26 06:59:46;;;;;;;1999.90;999.90;;;;;;;10.21;52.70;165122.94;5054319;28;20433;-67
2022/03/26 07:02:13;;;;;;;1999.90;999.90;;;;;;;10.25;53.23;165132.56;5067233;28;20106;-67
2022/03/26 07:04:39;;;;;;;1999.90;999.90;;;;;;;10.67;52.04;165245.53;5066274;28;20242;-66
2022/03/26 07:07:06;;;;;;;1999.90;999.90;;;;;;;10.83;52.13;165288.25;5058008;28;20095;-67
2022/03/26 07:09:33;;;;;;;1999.90;999.90;;;;;;;10.89;51.54;165303.41;5070331;28;20091;-67
2022/03/26 07:12:00;;;;;;;1999.90;999.90;;;;;;;11.09;51.45;165358.50;5051680;28;20476;-67
2022/03/26 07:14:27;;;;;;;1999.90;999.90;;;;;;;10.81;51.68;165282.75;5070359;28;20048;-67
2022/03/26 07:16:53;;;;;;;1999.90;999.90;;;;;;;10.94;51.55;165317.16;5064788;28;20099;-67
2022/03/26 07:19:20;;;;;;;1999.90;999.90;;;;;;;11.44;50.64;165452.16;5056797;28;20518;-67
2022/03/26 07:21:46;;;;;;;1999.90;999.90;;;;;;;11.57;50.15;165486.66;5062315;28;20057;-67
2022/03/26 07:24:13;;;;;;;1999.90;999.90;;;;;;;11.89;49.53;165572.06;5055313;28;20442;-67
2022/03/26 07:26:39;;;;;;;1999.90;999.90;;;;;;;11.79;49.92;165544.53;5039022;28;20083;-67
2022/03/26 07:29:06;;;;;;;1999.90;999.90;;;;;;;11.78;49.19;165541.78;5061367;28;20048;-67
2022/03/26 07:31:32;;;;;;;1999.90;999.90;;;;;;;11.94;48.67;165585.94;5069335;28;20106;-68
2022/03/26 07:33:59;;;;;;;1999.90;999.90;;;;;;;11.88;49.28;165567.94;5070071;28;20376;-68
2022/03/26 07:36:25;;;;;;;1999.90;999.90;;;;;;;11.32;51.52;165417.75;5058736;28;20153;-68
2022/03/26 07:38:52;;;;;;;1999.90;999.90;;;;;;;11.76;50.80;165537.66;5070402;28;20084;-68
2022/03/26 07:41:18;;;;;;;1999.90;999.90;;;;;;;11.92;49.59;165578.97;5060757;28;20074;-68
2022/03/26 07:43:45;;;;;;;1999.90;999.90;;;;;;;12.28;48.67;165676.94;5064490;28;20055;-68
2022/03/26 07:46:11;;;;;;;1999.90;999.90;;;;;;;12.19;48.60;165652.06;5056127;28;20049;-68
2022/03/26 07:48:38;;;;;;;1999.90;999.90;;;;;;;12.27;49.52;165672.78;5081100;28;20052;-68
2022/03/26 07:51:04;;;;;;;1999.90;999.90;;;;;;;12.61;48.75;165765.16;5070031;28;20098;-68
2022/03/26 07:53:31;;;;;;;1999.90;999.90;;;;;;;12.65;48.53;165776.19;5042066;28;20681;-68
2022/03/26 07:55:57;;;;;;;1999.90;999.90;;;;;;;12.86;48.17;165832.75;5061777;28;20273;-68
2022/03/26 07:58:24;;;;;;;1999.90;999.90;;;;;;;12.69;48.91;165787.19;5054583;28;20305;-68
2022/03/26 08:00:50;;;;;;;1999.90;999.90;;;;;;;13.03;49.05;165878.22;5064905;28;20083;-68
2022/03/26 08:03:17;;;;;;;1999.90;999.90;;;;;;;13.49;47.91;165999.72;5065603;28;20115;-68
2022/03/26 08:05:44;;;;;;;1999.90;999.90;;;;;;;13.35;48.74;165963.84;5055083;28;20342;-68
2022/03/26 08:08:10;;;;;;;1999.90;999.90;;;;;;;13.79;47.83;166079.72;5066606;28;20079;-68
2022/03/26 08:10:37;;;;;;;1999.90;999.90;;;;;;;13.66;47.54;166046.56;5060407;28;20675;-69
2022/03/26 08:13:04;;;;;;;1999.90;999.90;;;;;;;13.52;47.71;166007.97;5069131;28;20056;-69
2022/03/26 08:15:31;;;;;;;1999.90;999.90;;;;;;;13.71;47.64;166060.41;5058063;28;20400;-69
2022/03/26 08:17:59;;;;;;;1999.90;999.90;;;;;;;14.13;46.30;166170.78;5062454;28;20346;-69
2022/03/26 08:20:26;;;;;;;1999.90;999.90;;;;;;;14.05;46.70;166150.09;5068159;28;20126;-69
2022/03/26 08:22:53;;;;;;;1999.90;999.90;;;;;;;13.98;47.07;166132.16;5056350;28;20060;-69
2022/03/26 08:28:10;;;;;;;1999.90;999.90;;;;;;;14.20;46.57;166191.53;5050138;28;20071;-69
2022/03/26 08:30:37;;;;;;;1999.90;999.90;;;;;;;14.13;46.89;166170.78;5060268;28;20437;-69
2022/03/26 08:33:04;;;;;;;1999.90;999.90;;;;;;;14.59;46.77;166296.41;5051222;28;20250;-67
2022/03/26 08:35:38;;;;;;;1999.90;999.90;;;;;;;15.10;45.89;166431.81;5061143;28;20587;-67
2022/03/26 08:38:06;;;;;;;1999.90;999.90;;;;;;;15.23;46.52;166466.28;5058211;28;20314;-67
2022/03/26 08:40:33;;;;;;;1999.90;999.90;;;;;;;15.41;45.80;166516.03;5052029;28;20110;-67
2022/03/26 08:43:00;;;;;;;1999.90;999.90;;;;;;;15.38;46.02;166506.34;5067915;28;20044;-68
2022/03/26 08:45:27;;;;;;;1999.90;999.90;;;;;;;15.93;44.90;166654.22;5057148;28;20057;-68
2022/03/26 08:47:54;;;;;;;1999.90;999.90;;;;;;;15.93;44.72;166654.22;5068275;28;20044;-68
2022/03/26 08:50:22;;;;;;;1999.90;999.90;;;;;;;14.84;47.05;166362.78;5058938;28;20098;-68
2022/03/26 08:52:49;;;;;;;1999.90;999.90;;;;;;;14.67;47.45;166317.19;5067677;28;20052;-69
2022/03/26 08:55:17;;;;;;;1999.90;999.90;;;;;;;14.72;47.50;166331.00;5066641;28;20090;-69
2022/03/26 08:57:44;;;;;;;1999.90;999.90;;;;;;;14.69;47.33;166322.69;5051853;28;20490;-69
2022/03/26 09:00:13;;;;;;;1999.90;999.90;;;;;;;14.81;47.88;166353.06;5061091;28;20052;-67
2022/03/26 09:02:39;;;;;;;1999.90;999.90;;;;;;;14.78;47.53;166346.16;5053346;28;20590;-67
2022/03/26 09:05:07;;;;;;;1999.90;999.90;;;;;;;15.11;48.27;166435.94;5063512;28;20441;-67
2022/03/26 09:07:34;;;;;;;1999.90;999.90;;;;;;;15.27;46.82;166477.34;5049956;28;20480;-67
2022/03/26 09:10:01;;;;;;;1999.90;999.90;;;;;;;16.20;45.91;166727.50;5059675;28;20137;-67
2022/03/26 09:12:27;;;;;;;1999.90;999.90;;;;;;;16.60;44.42;166833.88;5060488;28;20133;-68
2022/03/26 09:14:53;;;;;;;1999.90;999.90;;;;;;;16.63;44.41;166843.56;5053601;28;20059;-68
2022/03/26 09:17:20;;;;;;;1999.90;999.90;;;;;;;16.60;43.95;166835.28;5061947;28;20094;-68
2022/03/26 09:19:47;;;;;;;1999.90;999.90;;;;;;;16.34;44.35;166766.16;5055077;28;20052;-67
2022/03/26 09:22:13;;;;;;;1999.90;999.90;;;;;;;16.26;45.46;166742.69;5062070;28;20080;-69
2022/03/26 09:24:40;;;;;;;1999.90;999.90;;;;;;;16.08;44.85;166695.72;5061424;28;20052;-68
2022/03/26 09:27:06;;;;;;;1999.90;999.90;;;;;;;16.02;45.57;166679.13;5052163;28;20440;-68
2022/03/26 09:29:33;;;;;;;1999.90;999.90;;;;;;;16.27;45.58;166746.84;5061127;28;20074;-68
2022/03/26 09:31:59;;;;;;;1999.90;999.90;;;;;;;16.35;44.79;166767.56;5053609;28;20080;-68
2022/03/26 09:34:26;;;;;;;1999.90;999.90;;;;;;;16.94;43.97;166926.59;5059593;28;20256;-68
2022/03/26 09:36:55;;;;;;;1999.90;999.90;;;;;;;17.42;43.63;167056.53;5051064;28;20116;-69
2022/03/26 09:39:22;;;;;;;1999.90;999.90;;;;;;;16.53;44.75;166815.94;5060713;28;20458;-69
2022/03/26 09:41:50;;;;;;;1999.90;999.90;;;;;;;16.69;44.86;166860.16;5061659;28;20643;-68
2022/03/26 09:44:17;;;;;;;1999.90;999.90;;;;;;;17.65;42.76;167117.38;5049254;28;20155;-69
2022/03/26 09:46:44;;;;;;;1999.90;999.90;;;;;;;17.74;42.58;167140.91;5060530;28;20440;-69
2022/03/26 09:49:11;;;;;;;1999.90;999.90;;;;;;;17.36;42.94;167039.94;5050291;28;20105;-69
2022/03/26 09:51:37;;;;;;;1999.90;999.90;;;;;;;17.17;43.28;166988.78;5062134;28;20091;-68
2022/03/26 09:54:03;;;;;;;1999.90;999.90;;;;;;;17.91;41.79;167188.00;5053491;28;20083;-68
2022/03/26 09:56:30;;;;;;;1999.90;999.90;;;;;;;18.45;40.19;167331.88;5059624;28;20102;-69
2022/03/26 09:58:57;;;;;;;1999.90;999.90;;;;;;;18.74;41.14;167409.34;5061262;28;20066;-69
2022/03/26 10:01:25;;;;;;;1999.90;999.90;;;;;;;18.87;40.37;167444.00;5053700;28;20382;-69
2022/03/26 10:04:12;;;;;;;1999.90;999.90;;;;;;;18.58;39.06;167367.84;5058274;28;20056;-69
2022/03/26 10:07:06;;;;;;;1999.90;999.90;;;;;;;17.38;40.67;167044.09;5053612;28;20469;-69
2022/03/26 10:09:35;;;;;;;1999.90;999.90;;;;;;;17.71;40.98;167133.97;5060121;28;20403;-69
2022/03/26 10:12:05;;;;;;;1999.90;999.90;;;;;;;17.75;40.25;167145.03;5051574;28;20461;-69
2022/03/26 10:14:38;;;;;;;1999.90;999.90;;;;;;;17.78;40.31;167151.97;5060688;28;20053;-69
2022/03/26 10:17:22;;;;;;;1999.90;999.90;;;;;;;18.54;39.52;167356.75;5062628;28;20051;-69
2022/03/26 10:19:57;;;;;;;1999.90;999.90;;;;;;;18.99;37.90;167477.22;5060880;28;20044;-69
2022/03/26 10:22:23;;;;;;;1999.90;999.90;;;;;;;17.90;37.13;167185.19;5061882;28;20433;-69
2022/03/26 10:24:50;;;;;;;1999.90;999.90;;;;;;;17.74;38.02;167142.25;5049494;28;20064;-69
2022/03/26 10:27:17;;;;;;;1999.90;999.90;;;;;;;17.75;38.65;167145.03;5061396;28;20048;-69
2022/03/26 10:29:55;;;;;;;1999.90;999.90;;;;;;;18.02;37.13;167215.66;5037455;28;20129;-69
2022/03/26 10:32:41;;;;;;;1999.90;999.90;;;;;;;18.29;36.81;167290.34;5059173;28;20654;-69
2022/03/26 10:35:15;;;;;;;1999.90;999.90;;;;;;;18.37;37.57;167311.13;5051957;28;20346;-69
2022/03/26 10:37:42;;;;;;;1999.90;999.90;;;;;;;18.42;37.84;167323.56;5061114;28;20056;-69
2022/03/26 10:40:17;;;;;;;1999.90;999.90;;;;;;;18.78;36.54;167421.78;5061643;28;20392;-69
2022/03/26 10:42:43;;;;;;;1999.90;999.90;;;;;;;17.84;37.23;167168.56;5053746;28;20060;-69
2022/03/26 10:45:14;;;;;;;1999.90;999.90;;;;;;;17.87;36.69;167175.50;5061806;28;20060;-69
2022/03/26 10:47:41;;;;;;;1999.90;999.90;;;;;;;17.75;36.81;167143.69;5053053;28;20094;-69
2022/03/26 10:50:08;;;;;;;1999.90;999.90;;;;;;;17.67;37.27;167121.53;5061759;28;20060;-69
2022/03/26 10:52:34;;;;;;;1999.90;999.90;;;;;;;17.20;37.73;166997.06;5054198;28;20084;-69
2022/03/26 10:55:01;;;;;;;1999.90;999.90;;;;;;;18.16;36.80;167254.34;5063162;28;20106;-69